Time;durP1;ratioP1;P1;durP2;ratioP2;P2;SDS_P1;SDS_P2;PMS_P1;PMS_P2;Temp;Humidity;BMP_temperature;BMP_pressure;BME280_temperature;BME280_humidity;BME280_pressure;Samples;Min_cycle;Max_cycle;Signal;HPM_P1;HPM_P2
2022/06/11 00:00:26;;;;;;;1.35;0.60;;;;;;;15.85;nan;101102.53;4991316;28;20401;-73
2022/06/11 00:02:51;;;;;;;0.87;0.57;;;;;;;15.78;nan;101104.25;4990632;28;20399;-74
2022/06/11 00:05:16;;;;;;;0.93;0.70;;;;;;;15.75;nan;101100.09;4991597;28;20441;-74
2022/06/11 00:07:42;;;;;;;0.93;0.63;;;;;;;15.72;nan;101108.44;4991614;28;20407;-73
2022/06/11 00:10:08;;;;;;;1.27;0.70;;;;;;;15.67;nan;101105.41;4991313;28;20414;-73
2022/06/11 00:12:35;;;;;;;0.93;0.55;;;;;;;15.63;nan;101109.44;4991067;28;20409;-74
2022/06/11 00:15:01;;;;;;;0.68;0.57;;;;;;;15.58;nan;101109.94;4991297;28;20422;-73
2022/06/11 00:17:26;;;;;;;0.77;0.63;;;;;;;15.57;nan;101115.44;4991452;28;21010;-73
2022/06/11 00:19:53;;;;;;;0.87;0.60;;;;;;;15.53;nan;101106.13;4990967;28;20429;-73
2022/06/11 00:22:20;;;;;;;0.70;0.60;;;;;;;15.47;nan;101108.47;4988514;28;20867;-73
2022/06/11 00:24:46;;;;;;;0.73;0.60;;;;;;;15.41;nan;101110.97;4983538;28;20503;-74
2022/06/11 00:27:13;;;;;;;0.57;0.57;;;;;;;15.36;nan;101118.66;4989171;28;20418;-74
2022/06/11 00:29:40;;;;;;;0.90;0.60;;;;;;;15.29;nan;101113.16;4990207;28;20437;-74
2022/06/11 00:32:06;;;;;;;0.88;0.52;;;;;;;15.23;nan;101111.16;4986884;28;20426;-73
2022/06/11 00:34:33;;;;;;;0.77;0.50;;;;;;;15.18;nan;101108.16;4988005;28;20422;-73
2022/06/11 00:36:59;;;;;;;0.88;0.60;;;;;;;15.14;nan;101110.34;4965917;28;20416;-73
2022/06/11 00:39:32;;;;;;;1.00;0.60;;;;;;;15.08;nan;101109.16;4990060;28;20409;-73
2022/06/11 00:42:06;;;;;;;0.73;0.70;;;;;;;15.04;nan;101112.31;4987644;28;20489;-73
2022/06/11 00:44:32;;;;;;;0.88;0.50;;;;;;;15.02;nan;101109.03;4984356;28;20394;-73
2022/06/11 00:47:15;;;;;;;1.00;0.70;;;;;;;15.06;nan;101113.84;4985518;28;20938;-74
2022/06/11 00:49:45;;;;;;;0.90;0.60;;;;;;;15.05;nan;101111.34;4988991;28;20414;-74
2022/06/11 00:52:37;;;;;;;0.90;0.70;;;;;;;15.05;nan;101112.16;4988060;28;21918;-73
2022/06/11 00:55:10;;;;;;;1.20;0.70;;;;;;;15.03;nan;101119.47;4987178;28;20797;-74
2022/06/11 00:57:53;;;;;;;0.90;0.70;;;;;;;15.03;nan;101113.34;4987899;28;20406;-74
2022/06/11 01:00:48;;;;;;;1.25;0.70;;;;;;;15.03;nan;101108.84;4988566;28;20418;-74
2022/06/11 01:03:17;;;;;;;1.05;0.70;;;;;;;15.06;nan;101107.66;4982237;28;20481;-74
2022/06/11 01:05:48;;;;;;;1.00;0.70;;;;;;;15.07;nan;101107.50;4988755;28;20591;-74
2022/06/11 01:08:48;;;;;;;0.65;0.60;;;;;;;15.10;nan;101110.84;4987611;28;20447;-73
2022/06/11 01:11:34;;;;;;;1.13;0.80;;;;;;;15.11;nan;101101.84;4906287;29;20420;-74
2022/06/11 01:14:10;;;;;;;1.10;0.70;;;;;;;15.10;nan;101102.84;4981833;28;20505;-74
2022/06/11 01:16:47;;;;;;;1.05;0.65;;;;;;;15.07;nan;101104.84;4987135;28;21075;-73
2022/06/11 01:19:31;;;;;;;0.80;0.60;;;;;;;14.86;nan;101104.50;4982581;28;20041;-74
2022/06/11 01:22:34;;;;;;;0.98;0.70;;;;;;;14.71;nan;101103.50;4987231;28;20396;-74
2022/06/11 01:25:23;;;;;;;1.25;0.85;;;;;;;14.58;nan;101106.63;4986683;28;20089;-73
2022/06/11 01:28:07;;;;;;;1.80;1.05;;;;;;;14.47;nan;101101.59;4991962;28;20500;-73
2022/06/11 01:30:54;;;;;;;1.77;1.10;;;;;;;14.32;nan;101102.22;4984162;28;20039;-74
2022/06/11 01:33:33;;;;;;;1.40;1.00;;;;;;;14.22;nan;101102.34;4988503;28;20525;-74
2022/06/11 01:36:15;;;;;;;1.60;1.10;;;;;;;14.12;nan;101106.97;4988594;28;20034;-74
2022/06/11 01:38:47;;;;;;;2.00;1.00;;;;;;;14.07;nan;101103.16;4990131;28;20450;-74
2022/06/11 01:41:31;;;;;;;1.75;1.08;;;;;;;13.98;nan;101104.94;4989906;28;20046;-74
2022/06/11 01:44:04;;;;;;;;;;;;;;;13.88;nan;101104.22;4989447;28;20039;-74
2022/06/11 01:46:35;;;;;;;1.50;1.00;;;;;;;13.80;nan;101102.38;4985859;28;19967;-74
2022/06/11 01:49:23;;;;;;;0.73;0.70;;;;;;;13.88;nan;101104.22;4994749;28;20494;-74
2022/06/11 01:52:10;;;;;;;1.15;0.80;;;;;;;13.92;nan;101100.25;4983798;28;20415;-73
2022/06/11 01:55:11;;;;;;;1.08;0.70;;;;;;;13.93;nan;101096.59;4987390;28;20477;-73
2022/06/11 01:57:41;;;;;;;0.98;0.75;;;;;;;13.96;nan;101102.41;4983706;28;20418;-73
2022/06/11 02:00:19;;;;;;;1.48;0.73;;;;;;;13.97;nan;101093.47;4986243;28;21006;-74
2022/06/11 02:02:56;;;;;;;1.45;0.70;;;;;;;13.96;nan;101097.09;4983520;28;20418;-73
2022/06/11 02:05:40;;;;;;;0.88;0.68;;;;;;;13.81;nan;101096.06;4989175;28;20037;-74
2022/06/11 02:08:05;;;;;;;1.13;0.77;;;;;;;13.73;nan;101099.50;4978138;28;20072;-73
2022/06/11 02:10:40;;;;;;;1.00;0.80;;;;;;;13.68;nan;101100.97;4987805;28;20030;-73
2022/06/11 02:13:26;;;;;;;0.70;0.70;;;;;;;13.64;nan;101096.97;4984728;28;20270;-74
2022/06/11 02:16:24;;;;;;;1.77;0.80;;;;;;;13.59;nan;101097.44;4985964;28;20452;-74
2022/06/11 02:18:52;;;;;;;1.10;0.80;;;;;;;13.56;nan;101095.06;4980470;28;20050;-74
2022/06/11 02:21:22;;;;;;;1.33;0.70;;;;;;;13.52;nan;101099.88;4982367;28;20038;-74
2022/06/11 02:24:11;;;;;;;1.00;0.85;;;;;;;13.47;nan;101104.84;4977795;28;20034;-74
2022/06/11 02:26:43;;;;;;;1.15;0.90;;;;;;;13.43;nan;101106.13;4972846;28;20377;-74
2022/06/11 02:29:12;;;;;;;0.90;0.73;;;;;;;13.40;nan;101103.78;4992949;28;20030;-74
2022/06/11 02:31:48;;;;;;;0.98;0.77;;;;;;;13.37;nan;101110.25;4986332;28;20442;-74
2022/06/11 02:34:16;;;;;;;1.13;0.70;;;;;;;13.35;nan;101103.44;4986530;28;20049;-74
2022/06/11 02:37:08;;;;;;;0.80;0.80;;;;;;;13.34;nan;101109.72;4977283;28;20041;-74
2022/06/11 02:39:37;;;;;;;1.20;0.80;;;;;;;13.29;nan;101112.84;4987732;28;20275;-74
2022/06/11 02:42:05;;;;;;;1.40;0.90;;;;;;;13.27;nan;101108.66;4985956;28;20058;-74
2022/06/11 02:44:31;;;;;;;1.83;0.93;;;;;;;13.23;nan;101104.63;4987058;28;20121;-74
2022/06/11 02:46:56;;;;;;;1.20;0.90;;;;;;;13.18;nan;101123.69;4991633;28;20053;-73
2022/06/11 02:49:26;;;;;;;1.70;0.90;;;;;;;13.14;nan;101117.03;4986608;28;20435;-74
2022/06/11 02:51:54;;;;;;;1.08;0.80;;;;;;;13.11;nan;101117.34;4987169;28;20042;-73
2022/06/11 02:54:20;;;;;;;0.93;0.77;;;;;;;13.07;nan;101116.78;4987245;28;20039;-74
2022/06/11 02:56:47;;;;;;;2.83;0.90;;;;;;;13.05;nan;101116.13;4988890;28;20597;-71
2022/06/11 02:59:12;;;;;;;1.15;0.90;;;;;;;13.03;nan;101117.25;4980910;28;20050;-73
2022/06/11 03:01:39;;;;;;;1.13;0.80;;;;;;;13.02;nan;101116.44;4989025;28;20061;-74
2022/06/11 03:04:05;;;;;;;1.73;0.90;;;;;;;13.01;nan;101116.56;4997720;28;20065;-74
2022/06/11 03:06:32;;;;;;;1.33;0.73;;;;;;;12.99;nan;101116.75;4989410;28;20498;-74
2022/06/11 03:08:59;;;;;;;1.15;0.73;;;;;;;13.00;nan;101117.56;4988105;28;20042;-73
2022/06/11 03:11:26;;;;;;;1.38;1.10;;;;;;;12.98;nan;101122.19;4986810;28;20183;-73
2022/06/11 03:13:51;;;;;;;0.75;0.75;;;;;;;12.99;nan;101116.75;4992727;28;20038;-74
2022/06/11 03:16:17;;;;;;;0.75;0.70;;;;;;;13.01;nan;101122.72;4986404;28;20084;-73
2022/06/11 03:18:42;;;;;;;1.38;0.80;;;;;;;13.01;nan;101122.72;4991374;28;20054;-73
2022/06/11 03:21:09;;;;;;;1.00;0.73;;;;;;;13.02;nan;101126.22;4986334;28;20042;-73
2022/06/11 03:23:34;;;;;;;1.33;0.80;;;;;;;13.00;nan;101130.84;4982427;28;20092;-73
2022/06/11 03:26:00;;;;;;;1.77;1.00;;;;;;;13.02;nan;101126.22;4987360;28;20463;-73
2022/06/11 03:28:28;;;;;;;2.28;1.10;;;;;;;13.11;nan;101128.78;4985936;28;20057;-73
2022/06/11 03:30:54;;;;;;;1.88;1.20;;;;;;;13.20;nan;101126.19;4987322;28;20049;-73
2022/06/11 03:33:20;;;;;;;2.83;1.27;;;;;;;13.28;nan;101128.94;4970446;28;20031;-73
2022/06/11 03:35:48;;;;;;;2.42;1.50;;;;;;;13.33;nan;101135.47;4994397;28;20034;-73
2022/06/11 03:38:14;;;;;;;1.50;1.10;;;;;;;13.37;nan;101131.50;4992450;28;20030;-74
2022/06/11 03:40:39;;;;;;;2.60;1.15;;;;;;;13.40;nan;101129.53;4992870;28;20045;-73
2022/06/11 03:43:05;;;;;;;1.65;1.10;;;;;;;13.43;nan;101130.03;4997024;28;20066;-73
2022/06/11 03:45:31;;;;;;;1.77;1.00;;;;;;;13.43;nan;101134.53;4993086;28;20034;-73
2022/06/11 03:47:57;;;;;;;1.13;0.93;;;;;;;13.43;nan;101129.22;4990913;28;20536;-74
2022/06/11 03:50:26;;;;;;;1.38;0.95;;;;;;;13.42;nan;101143.47;4990532;28;20081;-73
2022/06/11 03:52:54;;;;;;;1.52;1.00;;;;;;;13.40;nan;101138.34;4987730;28;20096;-74
2022/06/11 03:55:21;;;;;;;1.15;0.80;;;;;;;13.37;nan;101138.63;4973117;28;20078;-73
2022/06/11 03:57:46;;;;;;;1.60;1.08;;;;;;;13.35;nan;101145.94;4990584;28;20062;-74
2022/06/11 04:00:17;;;;;;;1.13;0.82;;;;;;;13.35;nan;101141.44;4990085;28;20042;-74
2022/06/11 04:02:42;;;;;;;1.00;0.70;;;;;;;13.36;nan;101142.28;4990351;28;20054;-73
2022/06/11 04:05:08;;;;;;;1.00;0.75;;;;;;;13.38;nan;101142.97;4968547;28;20077;-73
2022/06/11 04:07:35;;;;;;;1.50;0.98;;;;;;;13.41;nan;101139.16;4968981;28;20504;-73
2022/06/11 04:10:00;;;;;;;1.40;0.90;;;;;;;13.44;nan;101146.81;4992246;28;20034;-74
2022/06/11 04:12:26;;;;;;;1.08;0.80;;;;;;;13.46;nan;101143.00;4991456;28;20441;-74
2022/06/11 04:14:51;;;;;;;0.98;0.73;;;;;;;13.50;nan;101139.06;4991747;28;20410;-74
2022/06/11 04:17:26;;;;;;;1.35;0.80;;;;;;;13.57;nan;101137.44;4990446;28;20129;-74
2022/06/11 04:19:52;;;;;;;1.10;0.80;;;;;;;13.63;nan;101143.94;4990872;28;20407;-73
2022/06/11 04:22:18;;;;;;;0.77;0.77;;;;;;;13.68;nan;101136.38;4989807;28;20030;-74
2022/06/11 04:24:44;;;;;;;1.10;0.85;;;;;;;13.74;nan;101141.03;4971028;28;20514;-74
2022/06/11 04:27:12;;;;;;;1.63;1.00;;;;;;;13.79;nan;101144.03;4989587;28;20556;-74
2022/06/11 04:29:45;;;;;;;1.27;0.90;;;;;;;13.85;nan;101141.75;4990697;28;20058;-78
2022/06/11 04:32:15;;;;;;;1.92;0.98;;;;;;;13.90;nan;101150.94;4989702;28;20084;-74
2022/06/11 04:34:42;;;;;;;2.20;1.40;;;;;;;13.95;nan;101147.81;4990247;28;20411;-73
2022/06/11 04:37:13;;;;;;;2.20;1.30;;;;;;;13.99;nan;101149.13;4990563;28;20031;-74
2022/06/11 04:39:40;;;;;;;1.42;1.00;;;;;;;14.04;nan;101146.84;4991107;28;20060;-74
2022/06/11 04:42:06;;;;;;;2.28;1.10;;;;;;;14.12;nan;101146.88;4986995;28;20121;-74
2022/06/11 04:44:31;;;;;;;1.30;1.10;;;;;;;14.19;nan;101150.56;4995434;28;20118;-73
2022/06/11 04:46:57;;;;;;;1.38;1.00;;;;;;;14.28;nan;101147.91;4988862;28;20126;-74
2022/06/11 04:49:22;;;;;;;;;;;;;;;14.38;nan;101153.97;4990726;28;20096;-73
2022/06/11 04:51:48;;;;;;;;;;;;;;;14.47;nan;101163.63;4987947;28;19924;-74
2022/06/11 04:54:14;;;;;;;;;;;;;;;14.60;nan;101166.69;4969570;28;20695;-74
2022/06/11 04:56:40;;;;;;;;;;;;;;;14.78;nan;101171.06;4990873;28;20438;-74
2022/06/11 04:59:06;;;;;;;2.15;1.50;;;;;;;14.98;nan;101174.25;4988753;28;19921;-73
2022/06/11 05:01:32;;;;;;;2.42;1.20;;;;;;;15.13;nan;101171.75;4971428;28;20097;-73
2022/06/11 05:03:57;;;;;;;1.85;1.10;;;;;;;15.28;nan;101180.78;4987388;28;20038;-74
2022/06/11 05:06:26;;;;;;;2.35;1.33;;;;;;;15.42;nan;101180.09;4988405;28;20043;-74
2022/06/11 05:08:52;;;;;;;2.13;1.20;;;;;;;15.58;nan;101184.56;4990083;28;20133;-74
2022/06/11 05:11:17;;;;;;;1.40;1.08;;;;;;;15.74;nan;101183.75;4975025;28;20065;-74
2022/06/11 05:13:43;;;;;;;1.50;1.02;;;;;;;15.89;nan;101183.88;4991673;28;20038;-74
2022/06/11 05:16:13;;;;;;;2.38;1.25;;;;;;;16.03;nan;101193.84;4989654;28;20317;-74
2022/06/11 05:18:38;;;;;;;2.77;1.40;;;;;;;16.15;nan;101180.97;4985614;28;20042;-74
2022/06/11 05:21:04;;;;;;;2.60;1.35;;;;;;;16.20;nan;101183.97;4987888;28;20297;-74
2022/06/11 05:23:29;;;;;;;2.45;1.40;;;;;;;16.28;nan;101191.09;4987936;28;20030;-74
2022/06/11 05:25:55;;;;;;;2.60;1.60;;;;;;;16.39;nan;101193.38;4988282;28;20101;-73
2022/06/11 05:28:26;;;;;;;3.47;1.90;;;;;;;16.46;nan;101183.69;4987903;28;20038;-73
2022/06/11 05:30:52;;;;;;;2.42;1.58;;;;;;;16.54;nan;101190.81;4989316;28;20042;-73
2022/06/11 05:33:19;;;;;;;2.20;1.30;;;;;;;16.59;nan;101199.16;4988945;28;20439;-73
2022/06/11 05:35:45;;;;;;;1.98;1.15;;;;;;;16.66;nan;101193.91;4989052;28;21386;-73
2022/06/11 05:38:15;;;;;;;4.03;1.55;;;;;;;16.79;nan;101199.56;4988461;28;20109;-74
2022/06/11 05:40:44;;;;;;;2.13;1.30;;;;;;;16.93;nan;101200.66;4991033;28;20040;-73
2022/06/11 05:43:10;;;;;;;2.25;1.45;;;;;;;17.10;nan;101201.38;4994650;28;20026;-74
2022/06/11 05:45:42;;;;;;;3.60;1.65;;;;;;;17.36;nan;101209.03;4964298;28;20031;-74
2022/06/11 05:48:09;;;;;;;2.45;1.50;;;;;;;17.70;nan;101202.38;4987246;28;20153;-74
2022/06/11 05:50:39;;;;;;;2.08;1.40;;;;;;;18.22;nan;101207.69;4988138;28;20092;-75
2022/06/11 05:53:06;;;;;;;2.95;1.42;;;;;;;18.82;nan;101208.44;4988346;28;20108;-74
2022/06/11 05:55:34;;;;;;;2.90;1.50;;;;;;;19.34;nan;101205.66;4987424;28;20027;-74
2022/06/11 05:58:03;;;;;;;3.45;1.80;;;;;;;19.72;nan;101203.53;4987469;28;20443;-74
2022/06/11 06:00:29;;;;;;;2.78;1.60;;;;;;;19.76;nan;101196.75;4987972;28;20210;-74
2022/06/11 06:02:55;;;;;;;2.17;1.40;;;;;;;19.71;nan;101207.22;4986864;28;20068;-74
2022/06/11 06:05:25;;;;;;;2.53;1.58;;;;;;;19.94;nan;101197.06;4989321;28;20089;-75
2022/06/11 06:07:51;;;;;;;4.63;1.80;;;;;;;20.45;nan;101197.72;4988027;28;20035;-75
2022/06/11 06:10:16;;;;;;;;;;;;;;;20.86;nan;101200.38;4989620;28;20035;-73
2022/06/11 06:12:42;;;;;;;4.37;2.10;;;;;;;21.21;nan;101194.84;4974117;28;19918;-75
2022/06/11 06:15:14;;;;;;;2.75;1.65;;;;;;;21.73;nan;101189.69;4992190;28;20482;-75
2022/06/11 06:17:40;;;;;;;2.25;1.30;;;;;;;22.22;nan;101197.25;4988729;28;20030;-75
2022/06/11 06:20:10;;;;;;;3.22;1.45;;;;;;;22.62;nan;101188.16;4986885;28;20113;-76
2022/06/11 06:22:36;;;;;;;3.70;1.60;;;;;;;22.60;nan;101183.00;4983180;28;20031;-75
2022/06/11 06:25:01;;;;;;;2.40;1.40;;;;;;;22.60;nan;101187.59;4990543;28;20038;-75
2022/06/11 06:27:27;;;;;;;3.55;1.48;;;;;;;22.59;nan;101189.44;4989969;28;20541;-75
2022/06/11 06:29:52;;;;;;;3.30;1.30;;;;;;;22.62;nan;101189.00;4986398;28;20261;-75
2022/06/11 06:32:18;;;;;;;3.28;1.27;;;;;;;22.65;nan;101187.75;4987034;28;20077;-75
2022/06/11 06:34:43;;;;;;;2.40;1.40;;;;;;;22.61;nan;101181.13;4988052;28;20045;-75
2022/06/11 06:37:09;;;;;;;2.92;1.50;;;;;;;22.56;nan;101187.16;4987973;28;20030;-75
2022/06/11 06:39:34;;;;;;;3.10;1.75;;;;;;;22.74;nan;101194.56;4988492;28;20066;-75
2022/06/11 06:42:00;;;;;;;2.33;1.30;;;;;;;23.02;nan;101198.75;4987602;28;20049;-75
2022/06/11 06:44:25;;;;;;;2.10;1.00;;;;;;;23.42;nan;101203.84;4987032;28;21265;-75
2022/06/11 06:46:51;;;;;;;2.20;1.00;;;;;;;23.50;nan;101207.13;4986168;28;20042;-75
2022/06/11 06:49:16;;;;;;;2.63;1.30;;;;;;;23.70;nan;101198.00;4986328;28;20031;-75
2022/06/11 06:51:42;;;;;;;2.92;1.48;;;;;;;24.00;nan;101205.41;4965543;28;20129;-73
2022/06/11 06:54:08;;;;;;;2.67;0.95;;;;;;;24.49;nan;101206.34;4986953;28;20085;-73
2022/06/11 06:56:33;;;;;;;2.72;1.67;;;;;;;24.58;nan;101208.50;4989218;28;20026;-73
2022/06/11 06:59:04;;;;;;;2.20;1.45;;;;;;;24.77;nan;101214.69;4988444;28;20041;-72
2022/06/11 07:01:30;;;;;;;3.22;1.70;;;;;;;25.02;nan;101211.81;4990363;28;20034;-75
2022/06/11 07:03:56;;;;;;;3.63;1.75;;;;;;;25.28;nan;101215.22;4989558;28;20030;-73
2022/06/11 07:06:23;;;;;;;3.42;1.40;;;;;;;25.50;nan;101215.47;4989468;28;20030;-73
2022/06/11 07:08:50;;;;;;;2.47;1.23;;;;;;;25.67;nan;101209.34;4992040;28;20538;-73
2022/06/11 07:11:15;;;;;;;1.83;1.20;;;;;;;26.04;nan;101216.19;4993945;28;20110;-73
2022/06/11 07:13:41;;;;;;;3.13;1.20;;;;;;;26.48;nan;101211.16;4972733;28;20039;-73
2022/06/11 07:16:06;;;;;;;2.35;1.30;;;;;;;26.66;nan;101212.06;4999178;28;20273;-73
2022/06/11 07:18:49;;;;;;;2.53;1.02;;;;;;;26.88;nan;101210.28;4994158;28;20028;-74
2022/06/11 07:21:20;;;;;;;2.45;1.13;;;;;;;27.01;nan;101213.78;4993730;28;20033;-74
2022/06/11 07:24:00;;;;;;;1.60;1.00;;;;;;;26.94;nan;101207.69;4993682;28;20039;-74
2022/06/11 07:26:38;;;;;;;1.58;0.80;;;;;;;26.89;nan;101211.94;4993265;28;20069;-73
2022/06/11 07:29:20;;;;;;;2.95;1.40;;;;;;;26.90;nan;101201.91;4993660;28;20046;-74
2022/06/11 07:31:48;;;;;;;1.42;1.00;;;;;;;26.93;nan;101198.69;4990308;28;20057;-74
2022/06/11 07:34:14;;;;;;;3.92;1.20;;;;;;;27.10;nan;101205.00;4988523;28;20038;-74
2022/06/11 07:36:40;;;;;;;3.13;1.08;;;;;;;27.37;nan;101204.38;4991954;28;20049;-73
2022/06/11 07:39:05;;;;;;;1.90;0.80;;;;;;;27.45;nan;101205.84;4992029;28;20038;-74
2022/06/11 07:41:31;;;;;;;2.28;1.00;;;;;;;27.31;nan;101206.16;4990317;28;20057;-74
2022/06/11 07:43:56;;;;;;;4.00;0.95;;;;;;;27.20;nan;101206.28;4994012;28;20502;-74
2022/06/11 07:46:22;;;;;;;1.85;1.08;;;;;;;27.54;nan;101209.78;4975708;28;20065;-74
2022/06/11 07:48:48;;;;;;;2.88;1.00;;;;;;;27.88;nan;101212.47;4992041;28;20035;-74
2022/06/11 07:51:17;;;;;;;3.05;1.35;;;;;;;27.62;nan;101222.13;4990648;28;20030;-74
2022/06/11 07:53:42;;;;;;;3.53;1.38;;;;;;;27.45;nan;101217.53;4989988;28;20054;-75
2022/06/11 07:56:07;;;;;;;3.53;1.20;;;;;;;27.92;nan;101213.63;4993863;28;20039;-75
2022/06/11 07:58:33;;;;;;;3.22;0.95;;;;;;;28.54;nan;101213.34;4990798;28;20825;-75
2022/06/11 08:00:59;;;;;;;2.40;1.00;;;;;;;29.01;nan;101220.91;4990692;28;20125;-75
2022/06/11 08:03:27;;;;;;;1.98;0.98;;;;;;;29.45;nan;101216.38;4989840;28;20038;-73
2022/06/11 08:05:53;;;;;;;2.40;0.90;;;;;;;29.96;nan;101222.19;4988387;28;20077;-74
2022/06/11 08:08:20;;;;;;;2.13;1.00;;;;;;;30.20;nan;101214.38;4987404;28;20160;-74
2022/06/11 08:10:47;;;;;;;2.25;0.90;;;;;;;30.51;nan;101215.38;4992463;28;20038;-74
2022/06/11 08:13:13;;;;;;;2.40;1.00;;;;;;;30.63;nan;101210.47;4975891;28;20027;-74
2022/06/11 08:15:42;;;;;;;2.17;0.75;;;;;;;30.98;nan;101214.38;4975351;28;20484;-74
2022/06/11 08:18:08;;;;;;;1.35;0.77;;;;;;;31.14;nan;101212.47;4992135;28;20073;-75
2022/06/11 08:20:34;;;;;;;2.10;0.80;;;;;;;31.75;nan;101206.16;4992466;28;20056;-75
2022/06/11 08:23:01;;;;;;;2.03;0.90;;;;;;;32.27;nan;101207.59;4991385;28;20030;-74
2022/06/11 08:25:27;;;;;;;4.00;1.10;;;;;;;32.22;nan;101207.63;4989922;28;20088;-75
2022/06/11 08:27:52;;;;;;;2.72;0.88;;;;;;;32.49;nan;101207.25;4989326;28;20030;-75
2022/06/11 08:30:21;;;;;;;2.15;0.90;;;;;;;32.71;nan;101206.03;4987558;28;20432;-74
2022/06/11 08:32:47;;;;;;;3.00;1.20;;;;;;;33.20;nan;101207.88;4972393;28;20046;-75
2022/06/11 08:35:14;;;;;;;1.63;1.00;;;;;;;33.57;nan;101207.28;4990455;28;20042;-74
2022/06/11 08:37:40;;;;;;;1.63;0.93;;;;;;;33.88;nan;101212.44;4991893;28;20030;-75
2022/06/11 08:40:07;;;;;;;2.40;1.00;;;;;;;33.89;nan;101207.75;4990337;28;20531;-74
2022/06/11 08:42:51;;;;;;;1.23;0.70;;;;;;;34.14;nan;101214.91;4992141;28;20034;-75
2022/06/11 08:45:35;;;;;;;2.80;1.10;;;;;;;34.27;nan;101205.94;4988822;28;20030;-74
2022/06/11 08:48:06;;;;;;;2.13;0.90;;;;;;;34.64;nan;101201.63;4988442;28;20049;-74
2022/06/11 08:50:40;;;;;;;2.55;0.90;;;;;;;35.04;nan;101194.66;4965505;28;20038;-75
2022/06/11 08:53:06;;;;;;;2.90;1.20;;;;;;;35.62;nan;101198.91;4989930;28;20030;-75
2022/06/11 08:55:34;;;;;;;;;;;;;;;36.12;nan;101203.69;4990750;28;20045;-75
2022/06/11 08:58:06;;;;;;;3.03;1.00;;;;;;;36.39;nan;101204.75;4996080;28;19917;-75
2022/06/11 09:00:47;;;;;;;2.63;1.00;;;;;;;36.45;nan;101200.78;4988795;28;20038;-76
2022/06/11 09:03:26;;;;;;;3.33;1.13;;;;;;;36.40;nan;101193.44;4989901;28;20073;-75
2022/06/11 09:05:57;;;;;;;2.30;0.95;;;;;;;36.62;nan;101194.63;4990117;28;20377;-75
2022/06/11 09:08:35;;;;;;;2.10;0.90;;;;;;;36.83;nan;101194.94;4988364;28;20046;-75
2022/06/11 09:11:16;;;;;;;2.40;0.82;;;;;;;36.93;nan;101194.69;4989345;28;20107;-75
2022/06/11 09:13:41;;;;;;;2.40;1.10;;;;;;;37.28;nan;101186.66;4988078;28;20041;-75
2022/06/11 09:16:12;;;;;;;1.60;0.60;;;;;;;37.96;nan;101195.56;4988224;28;20419;-75
2022/06/11 09:19:01;;;;;;;2.65;1.05;;;;;;;38.12;nan;101187.66;4967829;28;20069;-74
2022/06/11 09:21:41;;;;;;;2.45;0.80;;;;;;;37.93;nan;101185.16;4989225;28;20026;-75
2022/06/11 09:24:31;;;;;;;2.38;0.70;;;;;;;38.46;nan;101186.91;4988473;28;20042;-75
2022/06/11 09:27:13;;;;;;;0.68;0.45;;;;;;;39.08;nan;101182.97;4987525;28;20081;-75
2022/06/11 09:29:47;;;;;;;2.92;1.02;;;;;;;39.23;nan;101187.13;4991308;28;20474;-74
2022/06/11 09:32:59;;;;;;;2.22;0.90;;;;;;;39.29;nan;101192.16;4990016;28;20034;-75
2022/06/11 09:35:39;;;;;;;2.83;0.90;;;;;;;39.50;nan;101185.94;4990803;28;20539;-75
2022/06/11 09:38:32;;;;;;;2.70;0.73;;;;;;;39.95;nan;101182.63;4979907;28;20035;-75
2022/06/11 09:41:12;;;;;;;2.17;0.80;;;;;;;40.06;nan;101177.50;4990916;28;20042;-74
2022/06/11 09:43:44;;;;;;;0.93;0.50;;;;;;;40.49;nan;101181.94;5003165;28;20053;-75
2022/06/11 09:46:23;;;;;;;1.88;0.70;;;;;;;40.93;nan;101180.41;4991121;28;20118;-75
2022/06/11 09:49:15;;;;;;;1.85;0.80;;;;;;;40.83;nan;101182.78;4990854;28;20088;-74
2022/06/11 09:51:57;;;;;;;2.35;0.95;;;;;;;40.78;nan;101191.31;4991348;28;20491;-74
2022/06/11 09:54:37;;;;;;;2.53;0.80;;;;;;;40.69;nan;101181.13;4980926;28;20046;-74
2022/06/11 09:57:27;;;;;;;2.35;0.95;;;;;;;40.70;nan;101184.72;4983633;28;20042;-75
2022/06/11 10:00:12;;;;;;;1.67;0.75;;;;;;;41.30;nan;101179.69;4988020;28;20386;-75
2022/06/11 10:02:52;;;;;;;2.00;0.80;;;;;;;41.58;nan;101183.44;4971593;28;20510;-75
2022/06/11 10:05:31;;;;;;;;;;;;;;;41.61;nan;101181.13;4987972;28;20466;-75
2022/06/11 10:08:03;;;;;;;;;;;;;;;41.67;nan;101180.53;4988205;28;20454;-75
2022/06/11 10:10:33;;;;;;;2.72;0.85;;;;;;;42.23;nan;101177.91;4988620;28;20000;-75
2022/06/11 10:13:05;;;;;;;2.63;0.73;;;;;;;42.40;nan;101182.41;4986517;28;20042;-75
2022/06/11 10:15:40;;;;;;;1.05;0.60;;;;;;;42.27;nan;101174.44;4988140;28;20312;-75
2022/06/11 10:18:19;;;;;;;2.78;0.70;;;;;;;42.08;nan;101175.06;4987552;28;20065;-74
2022/06/11 10:20:50;;;;;;;1.42;0.50;;;;;;;41.63;nan;101176.03;4991817;28;20096;-75
2022/06/11 10:23:28;;;;;;;1.52;0.68;;;;;;;41.01;nan;101172.31;4987944;28;20482;-75
2022/06/11 10:26:03;;;;;;;1.35;0.70;;;;;;;40.06;nan;101172.78;4988188;28;20442;-74
2022/06/11 10:28:33;;;;;;;1.05;0.50;;;;;;;38.77;nan;101175.66;4983757;28;20398;-74
2022/06/11 10:31:12;;;;;;;1.20;0.45;;;;;;;39.03;nan;101166.53;4985987;28;20096;-74
2022/06/11 10:33:50;;;;;;;2.28;0.80;;;;;;;40.63;nan;101165.81;4987988;28;20034;-75
2022/06/11 10:36:15;;;;;;;;;;;;;;;40.90;nan;101164.41;4987904;28;20117;-74
2022/06/11 10:38:54;;;;;;;1.43;0.60;;;;;;;41.74;nan;101166.88;4987621;28;20028;-75
2022/06/11 10:41:30;;;;;;;2.22;0.70;;;;;;;42.41;nan;101167.34;4988224;28;20044;-75
2022/06/11 10:44:14;;;;;;;;;;;;;;;42.86;nan;101168.22;4980287;28;20034;-75
2022/06/11 10:46:40;;;;;;;;;;;;;;;43.68;nan;101166.72;4982912;28;19918;-74
2022/06/11 10:49:13;;;;;;;2.47;0.80;;;;;;;44.11;nan;101164.91;4984487;28;20016;-75
2022/06/11 10:51:40;;;;;;;2.00;0.90;;;;;;;43.56;nan;101170.38;4968604;28;20487;-74
2022/06/11 10:54:24;;;;;;;2.00;0.85;;;;;;;42.18;nan;101158.69;4986118;28;21415;-75
2022/06/11 10:56:59;;;;;;;3.42;1.20;;;;;;;41.84;nan;101157.25;4988304;28;20038;-75
2022/06/11 10:59:58;;;;;;;1.98;0.80;;;;;;;41.48;nan;101149.75;4983427;28;20030;-75
2022/06/11 11:02:36;;;;;;;2.50;1.02;;;;;;;40.81;nan;101154.56;4986780;28;20042;-74
2022/06/11 11:05:07;;;;;;;3.13;1.05;;;;;;;40.47;nan;101146.22;4988761;28;20101;-74
2022/06/11 11:08:10;;;;;;;1.92;0.70;;;;;;;41.25;nan;101150.19;4980240;28;20385;-74
2022/06/11 11:10:35;;;;;;;2.88;0.80;;;;;;;41.73;nan;101145.00;4967880;28;20479;-74
2022/06/11 11:13:04;;;;;;;2.23;0.80;;;;;;;42.41;nan;101147.09;4985411;28;20042;-74
2022/06/11 11:15:38;;;;;;;1.92;1.00;;;;;;;43.61;nan;101159.00;4983448;28;20030;-75
2022/06/11 11:18:18;;;;;;;2.47;0.90;;;;;;;44.62;nan;101150.81;4986236;28;20129;-75
2022/06/11 11:20:45;;;;;;;1.38;0.73;;;;;;;45.56;nan;101145.66;4986263;28;20046;-75
2022/06/11 11:23:22;;;;;;;2.58;0.90;;;;;;;45.74;nan;101145.94;4969242;28;20045;-74
2022/06/11 11:25:59;;;;;;;1.60;0.65;;;;;;;45.90;nan;101145.75;4986236;28;20062;-75
2022/06/11 11:28:37;;;;;;;2.10;0.70;;;;;;;45.72;nan;101144.72;4982687;28;20051;-74
2022/06/11 11:31:03;;;;;;;2.22;0.90;;;;;;;43.09;nan;101139.75;4986662;28;20042;-75
2022/06/11 11:33:34;;;;;;;1.33;0.80;;;;;;;43.37;nan;101145.25;4986341;28;20047;-75
2022/06/11 11:36:10;;;;;;;1.55;0.70;;;;;;;44.01;nan;101140.41;4984917;28;20281;-74
2022/06/11 11:38:36;;;;;;;1.60;0.80;;;;;;;44.25;nan;101131.75;4979623;28;20439;-75
2022/06/11 11:41:03;;;;;;;1.98;0.70;;;;;;;44.94;nan;101139.47;4986984;28;20038;-75
2022/06/11 11:43:41;;;;;;;1.63;0.70;;;;;;;45.74;nan;101125.56;4987999;28;20507;-75
2022/06/11 11:46:13;;;;;;;1.90;0.70;;;;;;;45.64;nan;101131.84;4986207;28;20488;-75
2022/06/11 11:48:48;;;;;;;1.65;0.70;;;;;;;43.98;nan;101122.41;4983485;28;20050;-74
2022/06/11 11:51:27;;;;;;;1.92;0.70;;;;;;;42.06;nan;101130.16;4987011;28;20364;-74
2022/06/11 11:54:17;;;;;;;1.50;0.80;;;;;;;40.46;nan;101127.19;4989563;28;20030;-74
2022/06/11 11:56:57;;;;;;;1.92;1.00;;;;;;;39.00;nan;101122.97;4993641;28;20030;-74
2022/06/11 11:59:42;;;;;;;2.70;0.80;;;;;;;38.78;nan;101123.94;4987138;28;20595;-74
2022/06/11 12:02:23;;;;;;;1.75;0.85;;;;;;;40.84;nan;101126.19;4992097;28;20061;-74
2022/06/11 12:04:52;;;;;;;2.50;0.70;;;;;;;41.62;nan;101125.25;4992914;28;20161;-74